James Bay, British Columbia

8:42 PM PDT on July 23, 2017 (GMT -0700)
Work Point | | Change Station

Elev 56 ft 48.42 °N, 123.40 °W | Updated 1 second ago

Clear
Clear
60.3 °F
Feels Like 60.3 °F
N
4.0
Wind Variable Wind from WSW

Today
High -- | Low -- °F
--% Chance of Precip.
Yesterday
High -- | Low -- °F
Precip. -- in
Pressure 30.04 in
Visibility 15.0 miles
Clouds Clear
Dew Point 53 °F
Humidity 76%
Rainfall 0.00 in
Snow Depth Not available.
5:37 AM 9:01 PM
New Moon, 1% visible
METAR CYWH 240300Z 21005KT 15SM SKC 16/12 A3003 RMK SLP170 DENSITY ALT 100FT
Pressure 30.04 in
Visibility 15.0 miles
Clouds Clear
Dew Point 53 °F
Humidity 76%
Rainfall 0.00 in
Snow Depth Not available.
5:37 AM 9:01 PM
New Moon, 1% visible
METAR CYWH 240300Z 21005KT 15SM SKC 16/12 A3003 RMK SLP170 DENSITY ALT 100FT

Get Severe Weather Alerts

Thanks for signing up!

Be on the lookout for a verification email in your inbox.

You'll start receiving the daily forecast at 6 AM.

×

10-Day Weather Forecast

Almanac

Astronomy

Jul. 23, 2017 Rise Set
Actual Time
Civil Twilight
Nautical Twilight
Astronomical Twilight
Moon
Length of Visible Light
Length of Day
Tomorrow will be .
, % of the Moon is Illuminated

Today's Extremes

Country Highs Country Lows

Community

WunderPhotos

Category 6

Welcome to Category 6. This is the collective home for Weather Underground's featured writeups by Dr. Jeff Masters (right), Bob Henson (left), Chris Burt, and other regular contributors.

Nearby

Air Quality

  Air Quality AQ Index Pollutant
Not available.

Snow Depth

Station Depth Elevation

Earthquake Activity

City Distance Mag. Time & Date
Minimum magnitude displayed is 2.5.

Coastal Water Temperatures

Place Temperature

Stations

Nearby Weather Stations

Station Location Temp. Windchill Dew Point Humidity Wind Precip. Elev Updated Type
                   

Watches & Warnings

There are currently no watches in effect.